Adams City, Colorado
Current Conditions -  °F | °C
As of 6:53 AM on Saturday 25 Oct 2014 (Local Time) from KDEN Reporting Station
Clear Clear  
Wind Chill: 52°   Ceiling: Unl
Heat Index: 52°   Visibility: 10mi
Dew Point: 22°   Wind: 8mph
Humidity: 31%   Direction: 230°SW
Pressure: 30.23"   Gusts: NA
Location:  39.8641°N, 104.821°W
Report Text: KDEN 251253Z 23007KT 10SM CLR 11/M06 A3023 RMK AO2 SLP186 T01111056
Loading
Personal Weather Stations






























Interactive Weather Map New forecast layout! Learn more

10-Day Weather Forecast

Advertisements
Track Severe Weather on mobile